Time;durP1;ratioP1;P1;durP2;ratioP2;P2;SDS_P1;SDS_P2;PMS_P1;PMS_P2;Temp;Humidity;BMP_temperature;BMP_pressure;BME280_temperature;BME280_humidity;BME280_pressure;Samples;Min_cycle;Max_cycle;Signal;HPM_P1;HPM_P2
2024/03/07 00:00:21;;;;;;;9.95;5.20;;;29.50;99.90;;;;;;5066981;28;20061;-61
2024/03/07 00:02:50;;;;;;;14.73;5.22;;;29.50;99.90;;;;;;5060517;28;20471;-61
2024/03/07 00:05:21;;;;;;;13.73;5.50;;;29.80;99.90;;;;;;5066990;28;20059;-61
2024/03/07 00:07:49;;;;;;;13.13;5.13;;;30.00;99.90;;;;;;5066142;28;20131;-70
2024/03/07 00:10:16;;;;;;;11.48;5.00;;;30.20;99.90;;;;;;5066719;28;20826;-62
2024/03/07 00:12:44;;;;;;;14.13;5.65;;;30.10;99.90;;;;;;5060249;28;20021;-70
2024/03/07 00:15:12;;;;;;;17.58;5.40;;;30.00;99.90;;;;;;5061152;28;20099;-71
2024/03/07 00:17:40;;;;;;;13.57;4.65;;;30.00;99.90;;;;;;5064963;28;20036;-67
2024/03/07 00:20:19;;;;;;;11.32;4.85;;;30.20;99.90;;;;;;5058488;28;20036;-70
2024/03/07 00:22:46;;;;;;;10.10;5.45;;;30.50;99.90;;;;;;5041301;28;20209;-61
2024/03/07 00:25:14;;;;;;;15.30;5.38;;;30.40;99.90;;;;;;5057352;28;20037;-62
2024/03/07 00:27:41;;;;;;;13.43;5.10;;;30.50;99.90;;;;;;5057715;28;20025;-62
2024/03/07 00:30:09;;;;;;;11.95;6.40;;;30.60;99.90;;;;;;5059834;28;20044;-71
2024/03/07 00:32:36;;;;;;;15.52;10.98;;;30.90;99.90;;;;;;5057845;28;20016;-66
2024/03/07 00:35:03;;;;;;;15.85;6.72;;;31.10;99.90;;;;;;5061066;28;20740;-69
2024/03/07 00:37:33;;;;;;;14.43;5.20;;;31.00;99.90;;;;;;5057957;28;20024;-63
2024/03/07 00:40:00;;;;;;;13.60;5.10;;;31.20;99.90;;;;;;5063171;28;20017;-72
2024/03/07 00:42:28;;;;;;;13.05;5.47;;;30.90;99.90;;;;;;5056398;28;20396;-71
2024/03/07 00:44:56;;;;;;;14.02;5.88;;;31.00;99.90;;;;;;5062584;28;20039;-73
2024/03/07 00:47:23;;;;;;;18.70;8.80;;;30.70;99.90;;;;;;5053884;28;20025;-64
2024/03/07 00:49:50;;;;;;;14.52;6.43;;;30.90;99.90;;;;;;5060676;28;20020;-63
2024/03/07 00:52:17;;;;;;;13.43;5.30;;;31.10;99.90;;;;;;5055739;28;20086;-69
2024/03/07 00:54:44;;;;;;;10.88;4.95;;;30.80;99.90;;;;;;5058874;28;20097;-62
2024/03/07 00:57:11;;;;;;;11.27;5.20;;;30.60;99.90;;;;;;5056737;28;20767;-69
2024/03/07 00:59:38;;;;;;;10.80;5.05;;;30.80;99.90;;;;;;5056440;28;20033;-68
2024/03/07 01:02:05;;;;;;;13.15;5.07;;;31.10;99.90;;;;;;5058514;28;20058;-62
2024/03/07 01:04:33;;;;;;;10.43;4.88;;;31.20;99.90;;;;;;5056443;28;20458;-61
2024/03/07 01:07:00;;;;;;;13.43;5.43;;;31.10;99.90;;;;;;5057062;28;20028;-61
2024/03/07 01:09:31;;;;;;;10.88;5.40;;;30.90;99.90;;;;;;5057031;28;20386;-67
2024/03/07 01:12:04;;;;;;;13.45;6.10;;;30.90;99.90;;;;;;5058287;28;20067;-63
2024/03/07 01:14:31;;;;;;;14.32;6.93;;;30.40;99.90;;;;;;5057913;28;20052;-63
2024/03/07 01:16:58;;;;;;;9.60;6.32;;;30.60;99.90;;;;;;5059299;28;20054;-62
2024/03/07 01:19:25;;;;;;;16.20;6.35;;;30.90;99.90;;;;;;5056292;28;20025;-67
2024/03/07 01:21:52;;;;;;;13.55;7.47;;;31.30;99.90;;;;;;5057288;28;20025;-62
2024/03/07 01:24:20;;;;;;;13.60;7.07;;;31.70;99.90;;;;;;5058604;28;20094;-66
2024/03/07 01:26:47;;;;;;;12.20;6.30;;;31.80;99.90;;;;;;5054646;28;20382;-62
2024/03/07 01:29:15;;;;;;;16.23;6.57;;;31.50;99.90;;;;;;5057240;28;20677;-63
2024/03/07 01:31:42;;;;;;;13.20;5.65;;;31.50;99.90;;;;;;5058575;28;20029;-65
2024/03/07 01:34:09;;;;;;;16.60;8.98;;;31.20;99.90;;;;;;5057607;28;20113;-62
2024/03/07 01:36:36;;;;;;;13.10;6.03;;;31.40;99.90;;;;;;5041064;28;20020;-66
2024/03/07 01:39:03;;;;;;;10.88;6.50;;;31.20;99.90;;;;;;5059861;28;20020;-66
2024/03/07 01:41:30;;;;;;;15.38;7.07;;;31.20;99.90;;;;;;5061884;28;20032;-69
2024/03/07 01:43:57;;;;;;;14.38;7.80;;;31.20;99.90;;;;;;5054909;28;20148;-66
2024/03/07 01:46:24;;;;;;;14.10;6.82;;;31.30;99.90;;;;;;5053081;28;20025;-63
2024/03/07 01:48:51;;;;;;;15.80;7.40;;;31.10;99.90;;;;;;5053969;28;20553;-62
2024/03/07 01:51:18;;;;;;;10.18;6.25;;;31.40;99.90;;;;;;5061555;28;20463;-70
2024/03/07 01:53:46;;;;;;;12.98;6.40;;;31.30;99.90;;;;;;5060659;28;20031;-63
2024/03/07 01:56:13;;;;;;;11.73;6.55;;;31.30;99.90;;;;;;5058618;28;20104;-63
2024/03/07 01:58:41;;;;;;;12.77;6.88;;;31.90;99.90;;;;;;5056940;28;20238;-66
2024/03/07 02:01:08;;;;;;;13.43;6.57;;;32.30;99.90;;;;;;5056374;28;20036;-62
2024/03/07 02:03:36;;;;;;;21.40;11.80;;;32.60;99.90;;;;;;5056001;28;20032;-69
2024/03/07 02:06:03;;;;;;;13.85;6.43;;;32.70;99.90;;;;;;5056430;28;20052;-73
2024/03/07 02:08:31;;;;;;;16.52;8.93;;;32.60;99.90;;;;;;5055098;28;20422;-63
2024/03/07 02:10:59;;;;;;;14.98;8.45;;;32.20;99.90;;;;;;5056574;28;20132;-61
2024/03/07 02:13:26;;;;;;;12.45;7.10;;;32.10;99.90;;;;;;5054860;28;20102;-67
2024/03/07 02:15:53;;;;;;;17.13;7.40;;;32.20;99.90;;;;;;5058720;28;20079;-61
2024/03/07 02:18:21;;;;;;;16.40;6.55;;;31.90;99.90;;;;;;5056516;28;20020;-63
2024/03/07 02:20:48;;;;;;;13.50;6.72;;;32.40;99.90;;;;;;5053555;28;20028;-67
2024/03/07 02:23:15;;;;;;;14.57;7.25;;;32.80;99.90;;;;;;5062166;28;20498;-72
2024/03/07 02:25:42;;;;;;;13.75;6.65;;;32.60;99.90;;;;;;5060245;28;20020;-70
2024/03/07 02:28:09;;;;;;;13.50;7.00;;;31.80;99.90;;;;;;5060367;28;20155;-66
2024/03/07 02:30:36;;;;;;;12.40;6.93;;;31.40;99.90;;;;;;5059591;28;20021;-71
2024/03/07 02:33:06;;;;;;;13.82;5.70;;;31.60;99.90;;;;;;5055284;28;20017;-72
2024/03/07 02:35:38;;;;;;;13.50;6.30;;;31.90;99.90;;;;;;5057343;28;20040;-62
2024/03/07 02:38:07;;;;;;;14.07;7.15;;;32.40;99.90;;;;;;5063171;28;20132;-67
2024/03/07 02:40:34;;;;;;;10.38;6.18;;;32.80;99.90;;;;;;5060150;28;20090;-63
2024/03/07 02:43:04;;;;;;;13.20;5.80;;;33.00;99.90;;;;;;5061439;28;20085;-63
2024/03/07 02:45:31;;;;;;;9.88;6.03;;;33.10;99.90;;;;;;5059356;28;20032;-63
2024/03/07 02:47:58;;;;;;;14.45;6.53;;;33.10;99.90;;;;;;5060412;28;20028;-66
2024/03/07 02:50:25;;;;;;;18.17;6.43;;;33.10;99.90;;;;;;5061754;28;20021;-65
2024/03/07 02:52:52;;;;;;;17.88;7.35;;;32.90;99.90;;;;;;5061978;28;20025;-64
2024/03/07 02:55:20;;;;;;;13.02;6.25;;;33.20;99.90;;;;;;5059481;28;20523;-67
2024/03/07 02:57:47;;;;;;;15.60;5.82;;;33.40;99.90;;;;;;5058992;28;20161;-63
2024/03/07 03:00:20;;;;;;;15.68;6.55;;;33.30;99.90;;;;;;5064515;28;20032;-64
2024/03/07 03:02:48;;;;;;;12.70;6.00;;;32.30;99.90;;;;;;5061055;28;20033;-64
2024/03/07 03:05:16;;;;;;;16.45;6.88;;;32.70;99.90;;;;;;5047122;28;20679;-69
2024/03/07 03:07:52;;;;;;;16.55;6.43;;;33.00;99.90;;;;;;5059948;28;20021;-71
2024/03/07 03:10:28;;;;;;;12.60;5.78;;;32.80;99.90;;;;;;5063111;28;20028;-61
2024/03/07 03:12:58;;;;;;;22.20;6.95;;;32.00;99.90;;;;;;5062925;28;20136;-68
2024/03/07 03:15:26;;;;;;;19.58;7.30;;;32.00;99.90;;;;;;5063042;28;20549;-62
2024/03/07 03:17:53;;;;;;;19.63;6.82;;;32.40;99.90;;;;;;5054853;28;20021;-69
2024/03/07 03:20:26;;;;;;;16.92;6.22;;;32.80;99.90;;;;;;5061072;28;20571;-61
2024/03/07 03:22:53;;;;;;;13.38;5.75;;;33.00;99.90;;;;;;5059749;28;20017;-68
2024/03/07 03:25:23;;;;;;;12.88;5.75;;;32.30;99.90;;;;;;5058453;28;20108;-61
2024/03/07 03:27:50;;;;;;;14.85;6.10;;;32.20;99.90;;;;;;5057043;28;20087;-61
2024/03/07 03:30:18;;;;;;;15.20;5.85;;;32.30;99.90;;;;;;5060311;28;20086;-61
2024/03/07 03:32:50;;;;;;;16.23;6.13;;;32.20;99.90;;;;;;5059841;28;20112;-61
2024/03/07 03:35:18;;;;;;;14.77;5.47;;;32.50;99.90;;;;;;5064569;28;20044;-70
2024/03/07 03:37:45;;;;;;;12.23;6.18;;;32.60;99.90;;;;;;5057859;28;20064;-70
2024/03/07 03:40:12;;;;;;;15.85;6.22;;;33.00;99.90;;;;;;5063549;28;20109;-69
2024/03/07 03:42:41;;;;;;;10.02;5.50;;;33.20;99.90;;;;;;5057592;28;20467;-69
2024/03/07 03:45:14;;;;;;;17.83;5.55;;;33.20;99.90;;;;;;5058646;28;20059;-61
2024/03/07 03:47:42;;;;;;;12.90;5.43;;;33.20;99.90;;;;;;5056064;28;20555;-62
2024/03/07 03:50:13;;;;;;;14.85;6.57;;;33.10;99.90;;;;;;5058396;28;20055;-69
2024/03/07 03:52:43;;;;;;;16.73;6.68;;;32.80;99.90;;;;;;5056605;28;20039;-63
2024/03/07 03:55:14;;;;;;;17.00;6.25;;;32.90;99.90;;;;;;5071279;28;20093;-65
2024/03/07 03:57:43;;;;;;;13.32;6.20;;;32.90;99.90;;;;;;5063619;28;20400;-65
2024/03/07 04:00:14;;;;;;;16.00;7.05;;;32.80;99.90;;;;;;5063122;28;20072;-74
2024/03/07 04:02:43;;;;;;;15.50;7.95;;;32.90;99.90;;;;;;5069390;28;20096;-66
2024/03/07 04:05:13;;;;;;;16.30;8.13;;;33.00;99.90;;;;;;5061110;28;20044;-69
2024/03/07 04:07:43;;;;;;;22.42;8.60;;;33.20;99.90;;;;;;5054195;28;20123;-63
2024/03/07 04:10:11;;;;;;;17.48;7.90;;;32.40;99.90;;;;;;5059150;28;20020;-65
2024/03/07 04:12:40;;;;;;;17.75;8.50;;;31.70;99.90;;;;;;5060106;28;20020;-64
2024/03/07 04:15:16;;;;;;;21.48;9.48;;;31.10;99.90;;;;;;5043911;28;20071;-69
2024/03/07 04:17:46;;;;;;;15.02;7.65;;;31.30;99.90;;;;;;5059853;28;20020;-72
2024/03/07 04:20:13;;;;;;;18.15;7.68;;;31.40;99.90;;;;;;5060539;28;20553;-67
2024/03/07 04:22:40;;;;;;;18.50;8.38;;;31.70;99.90;;;;;;5061832;28;20111;-72
2024/03/07 04:25:09;;;;;;;15.48;7.45;;;31.50;99.90;;;;;;5063728;28;20028;-66
2024/03/07 04:27:39;;;;;;;22.13;8.90;;;31.50;99.90;;;;;;5062902;28;20067;-66
2024/03/07 04:30:09;;;;;;;21.58;8.60;;;31.50;99.90;;;;;;5063597;28;20039;-65
2024/03/07 04:32:38;;;;;;;16.38;7.82;;;31.80;99.90;;;;;;5071864;28;20092;-65
2024/03/07 04:35:07;;;;;;;16.50;7.70;;;32.00;99.90;;;;;;5073857;28;20043;-71
2024/03/07 04:37:36;;;;;;;23.02;8.10;;;32.20;99.90;;;;;;5067582;28;20024;-65
2024/03/07 04:40:16;;;;;;;19.40;8.07;;;32.60;99.90;;;;;;5065892;28;20027;-67
2024/03/07 04:42:50;;;;;;;18.50;8.20;;;32.60;99.90;;;;;;5066542;28;20356;-69
2024/03/07 04:45:18;;;;;;;12.32;6.60;;;32.40;99.90;;;;;;5071133;28;20116;-67
2024/03/07 04:47:46;;;;;;;15.98;7.03;;;32.20;99.90;;;;;;5063141;28;20028;-65
2024/03/07 04:50:17;;;;;;;16.85;8.10;;;32.20;99.90;;;;;;5054245;28;20124;-64
2024/03/07 04:52:45;;;;;;;18.20;7.80;;;32.00;99.90;;;;;;5072788;28;20021;-67
2024/03/07 04:55:12;;;;;;;14.43;8.48;;;31.00;99.90;;;;;;5071949;28;20035;-73
2024/03/07 04:57:41;;;;;;;15.52;8.10;;;30.30;99.90;;;;;;5070838;28;20036;-70
2024/03/07 05:00:13;;;;;;;19.20;9.77;;;30.00;99.90;;;;;;5073634;28;20274;-64
2024/03/07 05:02:41;;;;;;;16.88;9.02;;;29.90;99.90;;;;;;5071778;28;20359;-70
2024/03/07 05:05:08;;;;;;;18.42;10.38;;;29.40;99.90;;;;;;5062922;28;20500;-65
2024/03/07 05:07:36;;;;;;;14.40;9.30;;;29.10;99.90;;;;;;5065867;28;20061;-68
2024/03/07 05:10:04;;;;;;;14.95;9.15;;;28.90;99.90;;;;;;5072537;28;20027;-66
2024/03/07 05:12:32;;;;;;;19.05;8.90;;;28.60;99.90;;;;;;5074061;28;20024;-68
2024/03/07 05:14:59;;;;;;;22.65;9.27;;;28.70;99.90;;;;;;5068180;28;20028;-61
2024/03/07 05:17:28;;;;;;;16.92;9.13;;;28.50;99.90;;;;;;5067706;28;20037;-64
2024/03/07 05:19:55;;;;;;;17.73;9.30;;;28.50;99.90;;;;;;5069905;28;20027;-73
2024/03/07 05:22:25;;;;;;;19.75;9.57;;;28.50;99.90;;;;;;5071281;28;20035;-68
2024/03/07 05:24:53;;;;;;;20.48;9.40;;;28.40;99.90;;;;;;5073113;28;20036;-69
2024/03/07 05:27:22;;;;;;;19.45;9.38;;;28.40;99.90;;;;;;5065624;28;20550;-72
2024/03/07 05:29:49;;;;;;;20.95;9.80;;;28.30;99.90;;;;;;5066367;28;20494;-72
2024/03/07 05:32:28;;;;;;;16.27;9.13;;;28.10;99.90;;;;;;5067105;28;20032;-63
2024/03/07 05:34:56;;;;;;;17.48;9.38;;;28.20;99.90;;;;;;5068083;28;20036;-64
2024/03/07 05:37:23;;;;;;;20.98;9.55;;;28.10;99.90;;;;;;5068003;28;20502;-62
2024/03/07 05:39:52;;;;;;;15.93;9.18;;;27.90;99.90;;;;;;5071709;28;20143;-63
2024/03/07 05:42:19;;;;;;;13.50;9.13;;;27.80;99.90;;;;;;5068486;28;20028;-70
2024/03/07 05:44:46;;;;;;;19.92;10.65;;;27.80;99.90;;;;;;5070433;28;20511;-73
2024/03/07 05:47:16;;;;;;;26.88;9.90;;;27.90;99.90;;;;;;5070316;28;20025;-63
2024/03/07 05:49:44;;;;;;;16.38;8.98;;;28.00;99.90;;;;;;5072824;28;20037;-70
2024/03/07 05:52:11;;;;;;;21.08;9.52;;;27.90;99.90;;;;;;5068272;28;20017;-70
2024/03/07 05:54:38;;;;;;;17.65;9.80;;;28.10;99.90;;;;;;5067865;28;20391;-71
2024/03/07 05:57:07;;;;;;;18.13;8.95;;;28.30;99.90;;;;;;5066220;28;20025;-64
2024/03/07 05:59:34;;;;;;;21.73;9.98;;;28.40;99.90;;;;;;5051585;28;20095;-69
2024/03/07 06:02:02;;;;;;;21.45;10.40;;;28.50;99.90;;;;;;5067148;28;20376;-63
2024/03/07 06:04:29;;;;;;;19.60;9.98;;;28.50;99.90;;;;;;5069413;28;20024;-62
2024/03/07 06:06:56;;;;;;;18.15;9.50;;;28.50;99.90;;;;;;5065297;28;20048;-61
2024/03/07 06:09:23;;;;;;;18.77;9.77;;;28.40;99.90;;;;;;5068894;28;20024;-68
2024/03/07 06:11:51;;;;;;;17.05;9.57;;;28.30;99.90;;;;;;5072348;28;20437;-69
2024/03/07 06:14:19;;;;;;;18.80;9.15;;;28.20;99.90;;;;;;5073746;28;20036;-63
2024/03/07 06:16:46;;;;;;;16.58;8.60;;;28.10;99.90;;;;;;5068882;28;20067;-63
2024/03/07 06:19:13;;;;;;;22.15;8.85;;;28.10;99.90;;;;;;5070196;28;20029;-69
2024/03/07 06:21:41;;;;;;;25.35;9.68;;;27.80;99.90;;;;;;5076354;28;20041;-63
2024/03/07 06:24:10;;;;;;;19.42;9.35;;;27.70;99.90;;;;;;5074091;28;20097;-69
2024/03/07 06:29:18;;;;;;;19.20;10.27;;;28.20;99.90;;;;;;5070733;28;20115;-71
2024/03/07 06:31:46;;;;;;;21.85;9.93;;;28.10;99.90;;;;;;5074146;28;20139;-69
2024/03/07 06:34:13;;;;;;;13.25;8.52;;;27.90;99.90;;;;;;5070000;28;20046;-68
2024/03/07 06:36:40;;;;;;;18.55;8.65;;;27.90;99.90;;;;;;5072690;28;20075;-63
2024/03/07 06:39:10;;;;;;;19.25;9.23;;;28.00;99.90;;;;;;5070585;28;20031;-62
2024/03/07 06:41:37;;;;;;;20.48;9.57;;;28.00;99.90;;;;;;5075009;28;20024;-63
2024/03/07 06:44:04;;;;;;;21.13;9.32;;;28.10;99.90;;;;;;5073442;28;20027;-64
2024/03/07 06:46:34;;;;;;;20.33;9.02;;;27.80;99.90;;;;;;5067747;28;20174;-64
2024/03/07 06:49:02;;;;;;;24.55;10.50;;;27.80;99.90;;;;;;5074543;28;20028;-69
2024/03/07 06:51:29;;;;;;;22.17;9.55;;;27.50;99.90;;;;;;5077480;28;20084;-63
2024/03/07 06:53:56;;;;;;;21.52;9.65;;;27.30;99.90;;;;;;5074639;28;20091;-63
2024/03/07 06:56:26;;;;;;;21.45;8.77;;;27.20;99.90;;;;;;5070521;28;20096;-70
2024/03/07 06:58:54;;;;;;;19.38;8.93;;;27.30;99.90;;;;;;5075298;28;20036;-63
2024/03/07 07:01:20;;;;;;;17.83;8.93;;;27.40;99.90;;;;;;5071343;28;20047;-63
2024/03/07 07:03:48;;;;;;;22.15;10.00;;;27.50;99.90;;;;;;5074946;28;20032;-63
2024/03/07 07:06:15;;;;;;;17.27;9.93;;;27.50;99.90;;;;;;5072411;28;20464;-63
2024/03/07 07:08:44;;;;;;;19.08;9.88;;;27.50;99.90;;;;;;5069726;28;20033;-69
2024/03/07 07:11:11;;;;;;;21.92;9.65;;;27.50;99.90;;;;;;5074281;28;20034;-70
2024/03/07 07:13:38;;;;;;;17.30;9.48;;;27.40;99.90;;;;;;5075202;28;20028;-70
2024/03/07 07:16:05;;;;;;;20.85;9.75;;;26.90;99.90;;;;;;5075007;28;20040;-69
2024/03/07 07:18:32;;;;;;;22.48;9.98;;;26.70;99.90;;;;;;5067437;28;20108;-69
2024/03/07 07:21:02;;;;;;;22.63;10.05;;;26.50;99.90;;;;;;5067363;28;20032;-64
2024/03/07 07:23:29;;;;;;;22.23;10.68;;;26.40;99.90;;;;;;5069590;28;20082;-69
2024/03/07 07:25:56;;;;;;;24.95;10.60;;;26.30;99.90;;;;;;5069967;28;20028;-64
2024/03/07 07:28:24;;;;;;;20.63;10.27;;;26.10;99.90;;;;;;5066881;28;20047;-73
2024/03/07 07:30:51;;;;;;;19.27;11.20;;;26.10;99.90;;;;;;5073260;28;20020;-72
2024/03/07 07:33:18;;;;;;;25.67;10.23;;;26.00;99.90;;;;;;5070400;28;20097;-64
2024/03/07 07:35:45;;;;;;;21.63;10.88;;;26.10;99.90;;;;;;5068725;28;20518;-62
2024/03/07 07:38:14;;;;;;;23.10;9.88;;;26.20;99.90;;;;;;5065372;28;20147;-69
2024/03/07 07:40:41;;;;;;;21.33;9.35;;;26.10;99.90;;;;;;5071234;28;20115;-69
2024/03/07 07:43:08;;;;;;;24.58;10.55;;;26.00;99.90;;;;;;5071300;28;20504;-70
2024/03/07 07:45:35;;;;;;;24.65;10.00;;;26.00;99.90;;;;;;5070069;28;20569;-71
2024/03/07 07:48:02;;;;;;;25.33;10.15;;;25.90;99.90;;;;;;5062764;28;20036;-70
2024/03/07 07:50:30;;;;;;;23.85;9.60;;;25.80;99.90;;;;;;5049030;28;20434;-71
2024/03/07 07:52:58;;;;;;;17.67;8.40;;;25.60;99.90;;;;;;5070957;28;20075;-62
2024/03/07 07:55:28;;;;;;;23.23;8.40;;;25.60;99.90;;;;;;5072233;28;20028;-71
2024/03/07 07:57:57;;;;;;;22.23;8.18;;;25.40;99.90;;;;;;5064722;28;20403;-61
2024/03/07 08:00:26;;;;;;;24.50;8.25;;;25.30;99.90;;;;;;5068930;28;20721;-72
2024/03/07 08:02:57;;;;;;;22.10;8.95;;;25.30;99.90;;;;;;5065799;28;20263;-70
2024/03/07 08:05:27;;;;;;;20.42;7.72;;;25.20;99.90;;;;;;5068288;28;20048;-62
2024/03/07 08:07:56;;;;;;;21.98;8.55;;;25.10;99.90;;;;;;5064868;28;20274;-61
2024/03/07 08:10:28;;;;;;;20.23;8.07;;;25.00;99.90;;;;;;5068442;28;20019;-62
2024/03/07 08:12:56;;;;;;;24.02;9.02;;;25.00;99.90;;;;;;5064735;28;20032;-69
2024/03/07 08:15:23;;;;;;;31.00;8.48;;;24.90;99.90;;;;;;5063970;28;20067;-64
2024/03/07 08:17:51;;;;;;;22.90;7.97;;;24.90;99.90;;;;;;5061607;28;20361;-64
2024/03/07 08:20:22;;;;;;;20.55;7.47;;;24.90;99.90;;;;;;5046834;28;20043;-64
2024/03/07 08:22:54;;;;;;;21.58;7.93;;;24.90;99.90;;;;;;5063687;28;20032;-69
2024/03/07 08:25:25;;;;;;;19.20;6.68;;;25.00;99.90;;;;;;5072073;28;20025;-68
2024/03/07 08:27:54;;;;;;;19.55;7.80;;;25.00;99.90;;;;;;5063777;28;20036;-70
2024/03/07 08:30:22;;;;;;;25.02;7.55;;;25.00;99.90;;;;;;5067539;28;20452;-72
2024/03/07 08:32:54;;;;;;;25.60;7.70;;;25.10;99.90;;;;;;5065759;28;20051;-68
2024/03/07 08:35:21;;;;;;;21.53;6.67;;;24.90;99.90;;;;;;5046903;28;20417;-63
2024/03/07 08:37:53;;;;;;;20.15;6.63;;;24.80;99.90;;;;;;5062152;28;20032;-66
2024/03/07 08:40:25;;;;;;;24.48;7.00;;;24.60;99.90;;;;;;5059824;28;20031;-66
2024/03/07 08:42:59;;;;;;;28.75;8.30;;;24.60;99.90;;;;;;5060435;28;20444;-68
2024/03/07 08:45:33;;;;;;;22.50;7.32;;;24.60;99.90;;;;;;5062999;28;20044;-65
2024/03/07 08:48:00;;;;;;;23.83;6.72;;;24.60;99.90;;;;;;5057444;28;20490;-68
2024/03/07 08:50:27;;;;;;;23.15;6.97;;;24.50;99.90;;;;;;5062782;28;20036;-68
2024/03/07 08:52:54;;;;;;;20.85;5.97;;;24.40;99.90;;;;;;5063422;28;20115;-68
2024/03/07 08:55:24;;;;;;;25.00;7.13;;;24.40;99.90;;;;;;5046789;28;20782;-68
2024/03/07 08:57:51;;;;;;;23.00;6.47;;;24.30;99.90;;;;;;5060854;28;20028;-73
2024/03/07 09:00:22;;;;;;;23.05;5.70;;;24.20;99.90;;;;;;5045317;28;20436;-65
2024/03/07 09:03:03;;;;;;;24.73;7.80;;;24.10;99.90;;;;;;5066741;28;20040;-65
2024/03/07 09:05:34;;;;;;;22.52;6.20;;;24.10;99.90;;;;;;5065366;28;20105;-70
2024/03/07 09:08:01;;;;;;;18.13;5.80;;;24.00;99.90;;;;;;5061539;28;20490;-71
2024/03/07 09:10:31;;;;;;;19.77;5.60;;;23.90;99.90;;;;;;5067191;28;20033;-70
2024/03/07 09:12:59;;;;;;;25.08;6.97;;;23.90;99.90;;;;;;5066639;28;20012;-66
2024/03/07 09:15:26;;;;;;;20.02;6.03;;;23.90;99.90;;;;;;5064971;28;20483;-73
2024/03/07 09:17:53;;;;;;;17.27;6.10;;;23.90;99.90;;;;;;5063190;28;20767;-66
2024/03/07 09:20:20;;;;;;;18.15;6.30;;;23.90;99.90;;;;;;5064366;28;20651;-74
2024/03/07 09:22:49;;;;;;;23.05;5.90;;;23.90;99.90;;;;;;5065307;28;20032;-66
2024/03/07 09:25:18;;;;;;;19.90;6.00;;;23.90;99.90;;;;;;5064463;28;20587;-67
2024/03/07 09:27:45;;;;;;;18.95;5.90;;;23.90;99.90;;;;;;5063670;28;20490;-64
2024/03/07 09:30:14;;;;;;;26.52;5.97;;;23.90;99.90;;;;;;5066514;28;20032;-70
2024/03/07 09:32:42;;;;;;;17.45;5.75;;;23.90;99.90;;;;;;5047620;28;20432;-73
2024/03/07 09:35:13;;;;;;;21.25;6.45;;;23.90;99.90;;;;;;5034043;22;20069;-72
2024/03/07 09:37:43;;;;;;;23.30;6.55;;;23.90;99.90;;;;;;5019272;28;20394;-70
2024/03/07 09:40:11;;;;;;;18.38;5.45;;;23.80;99.90;;;;;;5019662;28;20088;-71
2024/03/07 09:42:47;;;;;;;22.35;5.38;;;23.80;99.90;;;;;;5022113;28;20029;-62
2024/03/07 09:45:16;;;;;;;17.60;6.13;;;23.80;99.90;;;;;;5022447;28;20406;-76
2024/03/07 09:47:51;;;;;;;22.52;6.63;;;23.80;99.90;;;;;;5019557;28;20446;-75
2024/03/07 09:50:21;;;;;;;21.95;5.57;;;23.90;99.90;;;;;;5015039;28;20018;-70
2024/03/07 09:52:49;;;;;;;19.15;5.80;;;23.80;99.90;;;;;;5020936;28;20107;-63
2024/03/07 09:55:18;;;;;;;28.80;5.47;;;23.80;99.90;;;;;;4675530;28;10000035;-69
2024/03/07 09:57:48;;;;;;;28.80;6.90;;;23.80;99.90;;;;;;5017843;28;20033;-62
2024/03/07 10:00:27;;;;;;;22.92;6.93;;;23.70;99.90;;;;;;5019500;28;20025;-62
2024/03/07 10:03:00;;;;;;;19.52;5.57;;;23.70;99.90;;;;;;5021103;28;20032;-62
2024/03/07 10:05:32;;;;;;;25.08;6.25;;;23.60;99.90;;;;;;5018918;28;20451;-63
2024/03/07 10:08:00;;;;;;;24.85;6.38;;;23.60;99.90;;;;;;5017268;28;20132;-66
2024/03/07 10:10:27;;;;;;;25.63;6.65;;;23.60;99.90;;;;;;5018707;28;20460;-70
2024/03/07 10:12:57;;;;;;;26.45;6.93;;;23.60;99.90;;;;;;5019926;28;20029;-72
2024/03/07 10:15:31;;;;;;;26.80;6.35;;;23.60;99.90;;;;;;5020498;28;20484;-63
2024/03/07 10:17:58;;;;;;;22.17;6.25;;;23.50;99.90;;;;;;5017104;28;20343;-70
2024/03/07 10:20:26;;;;;;;29.05;6.53;;;23.50;99.90;;;;;;5020569;28;21378;-62
2024/03/07 10:22:53;;;;;;;19.40;5.35;;;23.50;99.90;;;;;;5023271;28;20034;-69
2024/03/07 10:25:27;;;;;;;22.38;5.85;;;23.40;99.90;;;;;;5020354;28;20273;-65
2024/03/07 10:27:55;;;;;;;28.83;5.88;;;23.30;99.90;;;;;;5017155;28;20798;-59
2024/03/07 10:30:22;;;;;;;21.15;5.85;;;23.30;99.90;;;;;;5020090;28;20029;-58
2024/03/07 10:32:56;;;;;;;23.20;7.07;;;23.20;99.90;;;;;;5022166;28;20057;-62
2024/03/07 10:35:28;;;;;;;27.95;6.43;;;23.30;99.90;;;;;;5037968;28;20067;-69
2024/03/07 10:37:56;;;;;;;23.83;6.13;;;23.30;99.90;;;;;;5038325;28;20147;-58
2024/03/07 10:40:27;;;;;;;25.00;5.90;;;23.30;99.90;;;;;;5040128;28;20037;-65
2024/03/07 10:42:57;;;;;;;22.95;6.22;;;23.20;99.90;;;;;;5039070;28;20296;-61
2024/03/07 10:45:28;;;;;;;21.20;5.88;;;23.20;99.90;;;;;;5042014;28;20071;-70
2024/03/07 10:47:57;;;;;;;18.42;6.80;;;23.30;99.90;;;;;;5036519;28;20028;-64
2024/03/07 10:50:49;;;;;;;32.47;7.47;;;23.30;99.90;;;;;;5024326;28;20040;-64
2024/03/07 10:53:43;;;;;;;21.70;5.93;;;23.30;99.90;;;;;;5042799;28;20044;-60
2024/03/07 10:56:24;;;;;;;26.05;6.22;;;23.10;99.90;;;;;;5041368;28;20033;-62
2024/03/07 10:59:04;;;;;;;26.50;5.82;;;23.20;99.90;;;;;;5042213;28;20428;-59
2024/03/07 11:01:36;;;;;;;28.98;5.78;;;23.10;99.90;;;;;;5045808;28;20102;-69
2024/03/07 11:04:05;;;;;;;21.13;5.22;;;23.10;99.90;;;;;;5045668;28;20025;-62
2024/03/07 11:06:37;;;;;;;26.15;6.35;;;23.20;99.90;;;;;;5041956;28;20495;-71
2024/03/07 11:09:10;;;;;;;22.90;5.80;;;23.20;99.90;;;;;;5045020;28;20039;-70
2024/03/07 11:11:43;;;;;;;19.88;6.35;;;23.20;99.90;;;;;;5044549;28;20483;-64
2024/03/07 11:14:11;;;;;;;26.02;6.65;;;23.20;99.90;;;;;;5045522;28;20048;-67
2024/03/07 11:16:41;;;;;;;24.30;6.88;;;23.10;99.90;;;;;;5041668;28;20047;-67
2024/03/07 11:19:36;;;;;;;22.67;6.15;;;23.10;99.90;;;;;;5045899;28;20105;-68
2024/03/07 11:22:15;;;;;;;29.50;7.63;;;23.00;99.90;;;;;;5044757;28;20029;-61
2024/03/07 11:24:45;;;;;;;33.00;7.38;;;22.90;99.90;;;;;;5044960;28;20197;-65
2024/03/07 11:27:15;;;;;;;26.52;7.78;;;22.70;99.90;;;;;;5044667;28;20036;-61
2024/03/07 11:29:57;;;;;;;29.45;8.90;;;22.70;99.90;;;;;;5045815;28;21122;-67
2024/03/07 11:32:26;;;;;;;23.88;7.88;;;22.60;99.90;;;;;;5044660;28;20036;-61
2024/03/07 11:34:55;;;;;;;22.13;6.28;;;22.60;99.90;;;;;;5045299;28;20964;-62
2024/03/07 11:37:48;;;;;;;24.98;7.93;;;22.50;99.90;;;;;;5045950;28;20104;-62
2024/03/07 11:40:35;;;;;;;21.17;7.10;;;22.50;99.90;;;;;;5046754;28;20025;-60
2024/03/07 11:43:05;;;;;;;24.85;6.82;;;22.50;99.90;;;;;;5045376;28;20451;-62
2024/03/07 11:45:38;;;;;;;27.48;7.18;;;22.40;99.90;;;;;;5047284;28;20040;-63
2024/03/07 11:48:09;;;;;;;;;;;22.40;99.90;;;;;;5042821;28;20036;-68
2024/03/07 11:50:37;;;;;;;34.97;8.27;;;22.50;99.90;;;;;;5045061;28;20326;-65
2024/03/07 11:53:06;;;;;;;20.95;7.07;;;22.50;99.90;;;;;;5045432;28;20017;-60
2024/03/07 11:55:46;;;;;;;21.40;7.05;;;22.50;99.90;;;;;;5044922;28;20703;-66
2024/03/07 11:58:16;;;;;;;25.13;7.82;;;22.40;99.90;;;;;;5045518;28;20075;-60
2024/03/07 12:00:47;;;;;;;26.27;8.25;;;22.30;99.90;;;;;;5046817;28;20104;-62
2024/03/07 12:03:18;;;;;;;21.92;7.88;;;22.30;99.90;;;;;;5044956;28;20030;-60
2024/03/07 12:05:46;;;;;;;24.25;8.95;;;22.20;99.90;;;;;;5046367;28;20118;-60
2024/03/07 12:08:13;;;;;;;27.50;9.90;;;22.20;99.90;;;;;;5045036;28;20509;-68
2024/03/07 12:10:44;;;;;;;21.77;8.10;;;22.20;99.90;;;;;;5045767;28;20036;-68
2024/03/07 12:13:12;;;;;;;20.25;8.23;;;22.20;99.90;;;;;;5044597;28;20127;-68
2024/03/07 12:15:40;;;;;;;25.23;8.68;;;22.20;99.90;;;;;;5027390;28;20025;-68
2024/03/07 12:18:09;;;;;;;24.17;8.80;;;22.30;99.90;;;;;;5045286;28;20037;-67
2024/03/07 12:20:40;;;;;;;30.42;9.63;;;22.30;99.90;;;;;;5045111;28;20025;-69
2024/03/07 12:23:08;;;;;;;26.30;9.30;;;22.30;99.90;;;;;;5045770;28;20487;-69
2024/03/07 12:25:45;;;;;;;25.55;9.52;;;22.30;99.90;;;;;;5043854;28;20140;-61
2024/03/07 12:28:17;;;;;;;25.38;9.48;;;22.30;99.90;;;;;;5043931;28;20079;-60
2024/03/07 12:30:47;;;;;;;24.33;9.30;;;22.20;99.90;;;;;;5046065;28;20025;-61
2024/03/07 12:33:14;;;;;;;17.30;7.60;;;22.20;99.90;;;;;;5044621;28;20261;-69
2024/03/07 12:35:42;;;;;;;20.88;8.35;;;22.10;99.90;;;;;;5045132;28;20827;-69
2024/03/07 12:38:14;;;;;;;24.42;7.45;;;22.10;99.90;;;;;;5044703;28;20033;-68
2024/03/07 12:40:46;;;;;;;24.23;8.75;;;22.10;99.90;;;;;;5044979;28;20025;-66
2024/03/07 12:43:19;;;;;;;18.70;6.88;;;22.10;99.90;;;;;;5044548;28;20403;-62
2024/03/07 12:45:54;;;;;;;21.67;7.63;;;22.10;99.90;;;;;;5043541;28;20465;-61
2024/03/07 12:48:21;;;;;;;22.00;6.82;;;22.10;99.90;;;;;;5043193;28;20013;-66